Time;durP1;ratioP1;P1;durP2;ratioP2;P2;SDS_P1;SDS_P2;PMS_P1;PMS_P2;Temp;Humidity;BMP_temperature;BMP_pressure;BME280_temperature;BME280_humidity;BME280_pressure;Samples;Min_cycle;Max_cycle;Signal;HPM_P1;HPM_P2
2022/01/15 00:00:46;;;;;;;40.80;25.73;;;;;;;;;;2056422;28;20206;-57
2022/01/15 00:01:46;;;;;;;42.17;24.63;;;;;;;;;;2057194;28;20181;-56
2022/01/15 00:02:46;;;;;;;41.57;27.27;;;;;;;;;;2056748;28;20183;-59
2022/01/15 00:03:46;;;;;;;42.90;27.23;;;;;;;;;;2057686;28;20174;-57
2022/01/15 00:04:47;;;;;;;40.00;25.80;;;;;;;;;;2052534;28;20202;-58
2022/01/15 00:05:47;;;;;;;42.43;24.87;;;;;;;;;;2057055;28;20269;-59
2022/01/15 00:06:47;;;;;;;43.37;26.57;;;;;;;;;;2056963;28;20178;-59
2022/01/15 00:07:48;;;;;;;43.17;25.10;;;;;;;;;;2057015;28;20174;-59
2022/01/15 00:08:48;;;;;;;41.03;25.80;;;;;;;;;;2051760;28;20680;-58
2022/01/15 00:09:50;;;;;;;42.00;26.10;;;;;;;;;;2056981;28;20281;-56
2022/01/15 00:10:50;;;;;;;40.33;25.47;;;;;;;;;;2046430;28;20606;-55
2022/01/15 00:11:52;;;;;;;38.37;25.10;;;;;;;;;;2056373;28;20174;-57
2022/01/15 00:12:53;;;;;;;39.27;23.63;;;;;;;;;;2056677;28;20729;-55
2022/01/15 00:14:12;;;;;;;41.53;25.47;;;;;;;;;;2057050;28;20245;-57
2022/01/15 00:15:18;;;;;;;41.20;25.10;;;;;;;;;;2054327;28;20189;-58
2022/01/15 00:17:46;;;;;;;42.70;25.03;;;;;;;;;;2058022;28;20226;-57
2022/01/15 00:19:00;;;;;;;41.83;25.50;;;;;;;;;;2057723;28;20173;-56
2022/01/15 00:20:05;;;;;;;39.53;24.93;;;;;;;;;;2056997;28;20261;-57
2022/01/15 00:21:05;;;;;;;40.93;25.23;;;;;;;;;;2058444;28;20682;-57
2022/01/15 00:22:06;;;;;;;37.37;23.47;;;;;;;;;;2053783;28;20187;-58
2022/01/15 00:23:06;;;;;;;40.07;23.67;;;;;;;;;;2056349;28;20178;-59
2022/01/15 00:24:07;;;;;;;41.63;25.57;;;;;;;;;;2054616;28;20596;-57
2022/01/15 00:25:08;;;;;;;36.33;21.77;;;;;;;;;;2056653;28;20689;-58
2022/01/15 00:26:08;;;;;;;36.47;23.97;;;;;;;;;;2054896;28;20182;-61
2022/01/15 00:27:09;;;;;;;40.33;24.23;;;;;;;;;;2054090;28;20686;-58
2022/01/15 00:28:09;;;;;;;37.97;24.10;;;;;;;;;;2055692;28;21965;-57
2022/01/15 00:29:10;;;;;;;37.23;23.00;;;;;;;;;;2056790;28;20205;-59
2022/01/15 00:30:12;;;;;;;39.27;24.30;;;;;;;;;;2057045;28;20627;-58
2022/01/15 00:31:12;;;;;;;36.70;23.73;;;;;;;;;;2057701;28;20206;-54
2022/01/15 00:32:12;;;;;;;37.13;24.70;;;;;;;;;;2055452;28;20181;-57
2022/01/15 00:33:12;;;;;;;41.17;25.10;;;;;;;;;;2057683;28;20182;-58
2022/01/15 00:34:13;;;;;;;38.30;23.43;;;;;;;;;;2057117;28;20722;-56
2022/01/15 00:35:14;;;;;;;34.93;23.27;;;;;;;;;;2057364;28;20188;-57
2022/01/15 00:36:15;;;;;;;37.23;23.97;;;;;;;;;;2055769;28;20190;-57
2022/01/15 00:37:16;;;;;;;39.87;24.03;;;;;;;;;;2058132;28;20178;-59
2022/01/15 00:38:16;;;;;;;35.47;22.83;;;;;;;;;;2064027;28;20186;-55
2022/01/15 00:39:16;;;;;;;40.00;24.03;;;;;;;;;;2065824;28;20193;-57
2022/01/15 00:40:17;;;;;;;37.90;24.23;;;;;;;;;;2056389;28;20194;-56
2022/01/15 00:41:18;;;;;;;40.20;23.57;;;;;;;;;;2059182;28;20718;-59
2022/01/15 00:42:18;;;;;;;35.90;24.10;;;;;;;;;;2058590;28;20182;-56
2022/01/15 00:43:19;;;;;;;34.57;22.93;;;;;;;;;;2057770;28;20556;-55
2022/01/15 00:44:19;;;;;;;30.10;22.17;;;;;;;;;;2056075;28;20185;-54
2022/01/15 00:45:22;;;;;;;35.83;23.50;;;;;;;;;;2056969;28;20193;-56
2022/01/15 00:46:22;;;;;;;33.73;22.40;;;;;;;;;;2057191;28;20194;-57
2022/01/15 00:47:22;;;;;;;31.17;21.30;;;;;;;;;;2055422;28;20186;-59
2022/01/15 00:48:22;;;;;;;33.57;23.53;;;;;;;;;;2054875;28;20174;-58
2022/01/15 00:49:23;;;;;;;35.37;23.47;;;;;;;;;;2056574;28;20194;-58
2022/01/15 00:50:23;;;;;;;35.07;23.80;;;;;;;;;;2055892;28;20201;-54
2022/01/15 00:51:24;;;;;;;35.97;22.83;;;;;;;;;;2056139;28;20216;-59
2022/01/15 00:52:25;;;;;;;31.97;22.53;;;;;;;;;;2057699;28;20174;-59
2022/01/15 00:53:25;;;;;;;36.43;25.00;;;;;;;;;;2058225;28;20628;-60
2022/01/15 00:54:25;;;;;;;36.47;22.93;;;;;;;;;;2056905;28;20190;-56
2022/01/15 00:55:26;;;;;;;35.97;23.40;;;;;;;;;;2056408;28;20166;-59
2022/01/15 00:56:26;;;;;;;38.23;23.23;;;;;;;;;;2057719;28;20265;-59
2022/01/15 00:57:27;;;;;;;37.70;23.33;;;;;;;;;;2053551;28;20183;-55
2022/01/15 00:58:27;;;;;;;37.47;23.23;;;;;;;;;;2055456;28;20170;-59
2022/01/15 00:59:27;;;;;;;37.57;23.60;;;;;;;;;;2055819;28;20614;-59
2022/01/15 01:00:27;;;;;;;35.77;22.77;;;;;;;;;;2056389;28;20185;-57
2022/01/15 01:01:28;;;;;;;39.90;25.20;;;;;;;;;;2056798;28;20213;-59
2022/01/15 01:02:28;;;;;;;36.47;23.77;;;;;;;;;;2056901;28;20187;-61
2022/01/15 01:03:28;;;;;;;39.30;23.73;;;;;;;;;;2057901;28;20304;-61
2022/01/15 01:04:28;;;;;;;40.47;23.67;;;;;;;;;;2056961;28;20631;-59
2022/01/15 01:05:29;;;;;;;39.00;24.17;;;;;;;;;;2056551;28;20233;-58
2022/01/15 01:06:29;;;;;;;34.53;23.00;;;;;;;;;;2057186;28;20174;-60
2022/01/15 01:07:29;;;;;;;34.10;22.63;;;;;;;;;;2057326;28;20183;-58
2022/01/15 01:08:29;;;;;;;34.17;23.23;;;;;;;;;;2057612;28;20201;-59
2022/01/15 01:09:48;;;;;;;33.53;22.27;;;;;;;;;;2057449;28;20166;-57
2022/01/15 01:10:53;;;;;;;36.27;23.67;;;;;;;;;;2049578;28;20241;-57
2022/01/15 01:11:58;;;;;;;32.33;21.37;;;;;;;;;;2050864;28;20175;-60
2022/01/15 01:20:33;;;;;;;33.13;21.83;;;;;;;;;;2056994;28;20170;-56
2022/01/15 01:22:51;;;;;;;31.70;21.70;;;;;;;;;;2057319;28;20162;-59
2022/01/15 01:22:58;;;;;;;31.97;21.33;;;;;;;;;;2051735;28;20280;-57
2022/01/15 01:24:00;;;;;;;32.83;19.60;;;;;;;;;;2056278;28;20186;-59
2022/01/15 01:25:01;;;;;;;35.00;22.00;;;;;;;;;;2055744;28;20210;-58
2022/01/15 01:26:09;;;;;;;35.73;21.80;;;;;;;;;;2056468;28;20213;-59
2022/01/15 01:27:21;;;;;;;32.57;20.93;;;;;;;;;;2054897;28;20190;-57
2022/01/15 01:28:35;;;;;;;28.73;19.93;;;;;;;;;;2054428;28;20644;-53
2022/01/15 01:30:44;;;;;;;31.33;22.20;;;;;;;;;;2056325;28;20197;-58
2022/01/15 01:32:34;;;;;;;28.70;20.10;;;;;;;;;;2050019;28;20982;-57
2022/01/15 01:34:26;;;;;;;26.87;19.63;;;;;;;;;;2054617;28;20209;-59
2022/01/15 01:35:40;;;;;;;30.30;19.93;;;;;;;;;;2051681;28;20610;-57
2022/01/15 01:37:00;;;;;;;26.70;18.63;;;;;;;;;;2048931;28;20191;-59
2022/01/15 01:38:11;;;;;;;29.10;19.03;;;;;;;;;;2056329;28;20213;-61
2022/01/15 01:39:17;;;;;;;29.10;19.23;;;;;;;;;;2055681;28;20182;-54
2022/01/15 01:40:27;;;;;;;30.70;19.20;;;;;;;;;;2054167;28;20170;-59
2022/01/15 01:41:35;;;;;;;28.53;19.03;;;;;;;;;;2055955;28;20170;-58
2022/01/15 01:42:42;;;;;;;28.13;18.33;;;;;;;;;;2049368;28;20258;-58
2022/01/15 01:43:46;;;;;;;27.43;17.83;;;;;;;;;;2052166;28;20277;-56
2022/01/15 01:45:09;;;;;;;26.87;19.07;;;;;;;;;;2055940;28;20185;-57
2022/01/15 01:47:23;;;;;;;25.37;18.30;;;;;;;;;;2055960;28;20273;-56
2022/01/15 01:48:23;;;;;;;25.63;18.03;;;;;;;;;;2055364;28;20690;-53
2022/01/15 01:49:23;;;;;;;25.80;17.37;;;;;;;;;;2056009;28;20201;-59
2022/01/15 01:50:25;;;;;;;26.77;17.60;;;;;;;;;;2056069;28;20890;-56
2022/01/15 01:51:29;;;;;;;26.33;17.47;;;;;;;;;;2056166;28;20206;-57
2022/01/15 01:52:30;;;;;;;25.20;17.77;;;;;;;;;;2055806;28;20189;-57
2022/01/15 01:53:30;;;;;;;23.83;17.23;;;;;;;;;;2055501;28;20182;-59
2022/01/15 01:54:30;;;;;;;23.50;18.13;;;;;;;;;;2056429;28;20265;-59
2022/01/15 01:55:30;;;;;;;30.83;18.70;;;;;;;;;;2047982;28;20179;-57
2022/01/15 01:56:31;;;;;;;23.30;18.10;;;;;;;;;;2055796;28;20170;-54
2022/01/15 01:57:32;;;;;;;27.00;18.40;;;;;;;;;;2055997;28;20205;-58
2022/01/15 01:58:32;;;;;;;25.67;18.17;;;;;;;;;;2055904;28;20538;-59
2022/01/15 01:59:32;;;;;;;27.00;18.40;;;;;;;;;;2056700;28;20261;-59
2022/01/15 02:00:33;;;;;;;25.10;18.93;;;;;;;;;;2055834;28;20197;-57
2022/01/15 02:01:34;;;;;;;27.47;18.77;;;;;;;;;;2055097;28;20276;-59
2022/01/15 02:02:35;;;;;;;26.53;18.83;;;;;;;;;;2055390;28;20186;-57
2022/01/15 02:03:35;;;;;;;29.87;19.10;;;;;;;;;;2053487;28;20190;-58
2022/01/15 02:04:35;;;;;;;23.30;17.43;;;;;;;;;;2055732;28;20231;-55
2022/01/15 02:05:38;;;;;;;24.27;17.63;;;;;;;;;;2055929;28;20174;-57
2022/01/15 02:06:39;;;;;;;26.27;18.10;;;;;;;;;;2049004;28;20190;-59
2022/01/15 02:07:40;;;;;;;24.23;18.67;;;;;;;;;;2056425;28;20690;-60
2022/01/15 02:08:40;;;;;;;25.10;17.77;;;;;;;;;;2056118;28;20193;-58
2022/01/15 02:09:40;;;;;;;23.53;17.47;;;;;;;;;;2057098;28;20197;-59
2022/01/15 02:10:41;;;;;;;28.37;19.50;;;;;;;;;;2055800;28;20202;-56
2022/01/15 02:11:43;;;;;;;28.47;19.67;;;;;;;;;;2056559;28;20173;-55
2022/01/15 02:12:44;;;;;;;28.93;20.00;;;;;;;;;;2058362;28;20170;-60
2022/01/15 02:13:45;;;;;;;29.83;19.27;;;;;;;;;;2058686;28;20712;-56
2022/01/15 02:14:45;;;;;;;32.03;20.90;;;;;;;;;;2058055;28;20182;-57
2022/01/15 02:15:45;;;;;;;29.20;19.13;;;;;;;;;;2058245;28;20171;-53
2022/01/15 02:16:46;;;;;;;27.13;18.57;;;;;;;;;;2058418;28;20182;-52
2022/01/15 02:17:47;;;;;;;25.00;18.77;;;;;;;;;;2058796;28;20170;-57
2022/01/15 02:18:52;;;;;;;29.73;20.53;;;;;;;;;;2056918;28;20674;-59
2022/01/15 02:20:23;;;;;;;29.17;19.97;;;;;;;;;;2050026;29;20187;-59
2022/01/15 02:23:43;;;;;;;28.97;18.30;;;;;;;;;;2058696;28;20150;-61
2022/01/15 02:24:44;;;;;;;25.17;18.20;;;;;;;;;;2058084;28;20158;-57
2022/01/15 02:25:45;;;;;;;27.23;19.03;;;;;;;;;;2058627;28;20213;-56
2022/01/15 02:26:45;;;;;;;26.33;19.17;;;;;;;;;;2056033;28;20186;-55
2022/01/15 02:27:46;;;;;;;28.10;18.50;;;;;;;;;;2056588;28;20186;-57
2022/01/15 02:28:51;;;;;;;25.17;18.00;;;;;;;;;;2057537;28;20202;-58
2022/01/15 02:29:51;;;;;;;24.10;17.37;;;;;;;;;;2057449;28;20650;-59
2022/01/15 02:30:53;;;;;;;26.80;19.37;;;;;;;;;;2057254;28;20233;-54
2022/01/15 02:31:53;;;;;;;23.93;18.73;;;;;;;;;;2057599;28;20233;-52
2022/01/15 02:32:54;;;;;;;21.47;16.70;;;;;;;;;;2054738;28;20261;-56
2022/01/15 02:33:55;;;;;;;23.77;17.70;;;;;;;;;;2057288;28;20734;-57
2022/01/15 02:34:57;;;;;;;27.63;18.60;;;;;;;;;;2057187;28;20266;-58
2022/01/15 02:35:58;;;;;;;25.43;17.97;;;;;;;;;;2055559;28;20254;-59
2022/01/15 02:36:58;;;;;;;21.30;16.37;;;;;;;;;;2057655;28;20860;-59
2022/01/15 02:38:05;;;;;;;23.30;15.67;;;;;;;;;;2055016;28;20204;-57
2022/01/15 02:39:05;;;;;;;20.87;16.60;;;;;;;;;;2057839;28;20214;-55
2022/01/15 02:40:08;;;;;;;27.90;18.30;;;;;;;;;;2057695;28;20218;-58
2022/01/15 02:41:09;;;;;;;25.10;18.33;;;;;;;;;;2057583;28;20186;-59
2022/01/15 02:42:09;;;;;;;24.90;17.50;;;;;;;;;;2056920;28;20174;-58
2022/01/15 02:43:12;;;;;;;24.97;17.43;;;;;;;;;;2056367;28;20564;-59
2022/01/15 02:44:18;;;;;;;20.37;16.13;;;;;;;;;;2057111;28;20170;-59
2022/01/15 02:45:22;;;;;;;21.33;16.47;;;;;;;;;;2056762;28;20654;-60
2022/01/15 02:48:01;;;;;;;25.60;17.67;;;;;;;;;;2048585;28;20191;-58
2022/01/15 02:49:05;;;;;;;25.50;18.33;;;;;;;;;;2053354;28;20166;-55
2022/01/15 02:50:07;;;;;;;25.83;19.07;;;;;;;;;;2056161;28;20276;-59
2022/01/15 02:51:07;;;;;;;27.27;19.37;;;;;;;;;;2056621;28;20194;-56
2022/01/15 02:52:07;;;;;;;25.80;18.63;;;;;;;;;;2056486;28;20249;-58
2022/01/15 02:53:08;;;;;;;26.67;19.70;;;;;;;;;;2054759;28;20201;-58
2022/01/15 02:54:08;;;;;;;29.03;18.97;;;;;;;;;;2057459;28;20202;-56
2022/01/15 02:55:09;;;;;;;25.70;16.97;;;;;;;;;;2056511;28;20754;-58
2022/01/15 02:56:09;;;;;;;23.47;18.20;;;;;;;;;;2057325;28;20222;-58
2022/01/15 02:57:10;;;;;;;28.60;20.17;;;;;;;;;;2050520;28;20203;-59
2022/01/15 02:58:10;;;;;;;27.23;18.70;;;;;;;;;;2055088;28;20193;-58
2022/01/15 02:59:21;;;;;;;23.80;17.67;;;;;;;;;;2054102;28;20173;-56
2022/01/15 03:00:22;;;;;;;29.90;18.97;;;;;;;;;;2056222;28;20313;-54
2022/01/15 03:02:55;;;;;;;26.60;18.03;;;;;;;;;;2051044;28;20725;-64
2022/01/15 03:03:55;;;;;;;23.60;17.73;;;;;;;;;;2049028;29;20203;-66
2022/01/15 03:04:55;;;;;;;24.10;17.27;;;;;;;;;;2048496;28;20179;-65
2022/01/15 03:05:56;;;;;;;25.37;18.30;;;;;;;;;;2049102;28;20194;-65
2022/01/15 03:06:56;;;;;;;25.63;18.07;;;;;;;;;;2049701;29;20177;-62
2022/01/15 03:07:56;;;;;;;25.03;17.53;;;;;;;;;;2049307;28;20222;-62
2022/01/15 03:08:56;;;;;;;23.97;18.43;;;;;;;;;;2049793;28;20171;-64
2022/01/15 03:09:57;;;;;;;24.47;18.37;;;;;;;;;;2049035;29;20194;-62
2022/01/15 03:10:57;;;;;;;26.90;18.33;;;;;;;;;;2049381;29;20214;-63
2022/01/15 03:12:02;;;;;;;26.57;18.83;;;;;;;;;;2049104;28;20565;-63
2022/01/15 03:13:09;;;;;;;27.60;19.27;;;;;;;;;;2045197;29;20190;-65
2022/01/15 03:14:12;;;;;;;26.60;18.70;;;;;;;;;;2049527;28;20254;-65
2022/01/15 03:15:18;;;;;;;27.93;19.07;;;;;;;;;;2048991;28;20242;-65
2022/01/15 03:16:19;;;;;;;24.17;18.20;;;;;;;;;;2050050;28;20171;-60
2022/01/15 03:17:19;;;;;;;24.87;17.90;;;;;;;;;;2049070;28;20194;-64
2022/01/15 03:18:21;;;;;;;26.03;18.47;;;;;;;;;;2049534;29;20203;-64
2022/01/15 03:19:22;;;;;;;24.73;17.90;;;;;;;;;;2049693;28;20193;-64
2022/01/15 03:20:22;;;;;;;21.60;16.80;;;;;;;;;;2049908;28;20225;-61
2022/01/15 03:21:22;;;;;;;25.47;18.20;;;;;;;;;;2049850;29;20178;-63
2022/01/15 03:22:22;;;;;;;26.27;17.60;;;;;;;;;;2056425;28;20678;-57
2022/01/15 03:23:23;;;;;;;22.97;18.00;;;;;;;;;;2057423;28;20337;-63
2022/01/15 03:24:23;;;;;;;25.53;18.43;;;;;;;;;;2050082;28;20653;-64
2022/01/15 03:25:23;;;;;;;26.97;18.67;;;;;;;;;;2049502;29;20242;-63
2022/01/15 03:26:23;;;;;;;26.53;19.13;;;;;;;;;;2049983;29;20194;-64
2022/01/15 03:27:25;;;;;;;27.83;19.00;;;;;;;;;;2049563;28;20765;-66
2022/01/15 03:28:26;;;;;;;26.60;18.87;;;;;;;;;;2047271;28;20179;-67
2022/01/15 03:29:26;;;;;;;22.97;17.70;;;;;;;;;;2046514;28;20260;-63
2022/01/15 03:30:26;;;;;;;25.33;18.20;;;;;;;;;;2056973;28;20615;-63
2022/01/15 03:31:26;;;;;;;23.60;18.10;;;;;;;;;;2056524;28;20904;-64
2022/01/15 03:32:27;;;;;;;26.87;19.03;;;;;;;;;;2049293;28;20186;-63
2022/01/15 03:33:27;;;;;;;25.27;18.77;;;;;;;;;;2049522;28;20254;-64
2022/01/15 03:34:27;;;;;;;23.87;18.20;;;;;;;;;;2048997;29;20174;-64
2022/01/15 03:35:27;;;;;;;25.13;17.80;;;;;;;;;;2048793;28;20257;-61
2022/01/15 03:36:28;;;;;;;24.10;18.23;;;;;;;;;;2049171;29;20187;-63
2022/01/15 03:37:28;;;;;;;25.57;18.10;;;;;;;;;;2049501;29;20179;-61
2022/01/15 03:38:28;;;;;;;22.83;17.60;;;;;;;;;;2049190;28;20194;-64
2022/01/15 03:39:28;;;;;;;26.53;18.17;;;;;;;;;;2048203;28;20190;-65
2022/01/15 03:40:29;;;;;;;25.40;18.03;;;;;;;;;;2048572;28;20187;-63
2022/01/15 03:41:29;;;;;;;25.30;18.27;;;;;;;;;;2049822;28;20198;-60
2022/01/15 03:42:29;;;;;;;25.43;18.13;;;;;;;;;;2048485;28;20674;-63
2022/01/15 03:43:29;;;;;;;26.90;18.13;;;;;;;;;;2049376;29;20183;-60
2022/01/15 03:44:29;;;;;;;24.37;17.73;;;;;;;;;;2049025;29;20210;-61
2022/01/15 03:45:30;;;;;;;26.00;18.60;;;;;;;;;;2049024;29;20230;-58
2022/01/15 03:46:30;;;;;;;22.30;17.13;;;;;;;;;;2049439;28;20241;-57
2022/01/15 03:47:31;;;;;;;27.47;18.27;;;;;;;;;;2050043;28;20278;-64
2022/01/15 03:48:31;;;;;;;23.97;17.93;;;;;;;;;;2049372;29;20248;-63
2022/01/15 03:49:31;;;;;;;25.67;17.70;;;;;;;;;;2049059;28;20198;-62
2022/01/15 03:50:31;;;;;;;22.87;17.77;;;;;;;;;;2049684;29;20199;-62
2022/01/15 03:51:32;;;;;;;22.73;17.90;;;;;;;;;;2049804;28;20183;-62
2022/01/15 03:52:32;;;;;;;23.60;17.40;;;;;;;;;;2048788;29;20196;-63
2022/01/15 03:53:33;;;;;;;24.57;17.53;;;;;;;;;;2048760;29;20237;-63
2022/01/15 03:54:34;;;;;;;25.10;17.53;;;;;;;;;;2049421;28;20195;-64
2022/01/15 03:55:34;;;;;;;22.37;17.43;;;;;;;;;;2049531;28;20262;-63
2022/01/15 03:56:34;;;;;;;26.67;18.03;;;;;;;;;;2048429;29;20221;-64
2022/01/15 03:57:35;;;;;;;22.93;16.57;;;;;;;;;;2048996;28;20226;-63
2022/01/15 03:58:35;;;;;;;21.40;16.60;;;;;;;;;;2048685;29;20190;-62
2022/01/15 03:59:35;;;;;;;21.90;16.57;;;;;;;;;;2048802;28;20190;-62
2022/01/15 04:00:35;;;;;;;26.27;18.10;;;;;;;;;;2049978;28;20224;-62
2022/01/15 04:01:36;;;;;;;26.63;19.60;;;;;;;;;;2048975;28;20175;-63
2022/01/15 04:02:36;;;;;;;22.07;17.20;;;;;;;;;;2048119;29;20187;-63
2022/01/15 04:03:37;;;;;;;23.03;16.90;;;;;;;;;;2049058;28;20678;-64
2022/01/15 04:04:38;;;;;;;21.30;17.77;;;;;;;;;;2056040;28;21011;-63
2022/01/15 04:05:38;;;;;;;21.87;16.93;;;;;;;;;;2055889;28;20177;-65
2022/01/15 04:06:38;;;;;;;25.30;17.17;;;;;;;;;;2049397;28;20938;-64
2022/01/15 04:07:39;;;;;;;22.83;17.10;;;;;;;;;;2048267;29;20685;-62
2022/01/15 04:08:39;;;;;;;25.40;18.10;;;;;;;;;;2046052;29;20226;-64
2022/01/15 04:09:39;;;;;;;21.17;16.23;;;;;;;;;;2049570;28;20190;-64
2022/01/15 04:10:40;;;;;;;22.20;16.63;;;;;;;;;;2049392;29;20626;-63
2022/01/15 04:11:40;;;;;;;25.23;17.73;;;;;;;;;;2049280;29;20195;-64
2022/01/15 04:12:41;;;;;;;22.63;17.10;;;;;;;;;;2049111;29;20257;-64
2022/01/15 04:13:41;;;;;;;23.97;16.27;;;;;;;;;;2049050;29;20190;-64
2022/01/15 04:14:41;;;;;;;22.57;17.27;;;;;;;;;;2048862;29;20227;-63
2022/01/15 04:15:42;;;;;;;21.93;17.10;;;;;;;;;;2048513;29;20175;-64
2022/01/15 04:16:42;;;;;;;23.73;17.10;;;;;;;;;;2049433;29;20195;-64
2022/01/15 04:17:43;;;;;;;24.20;18.03;;;;;;;;;;2049635;29;20202;-65
2022/01/15 04:18:44;;;;;;;21.70;16.47;;;;;;;;;;2049586;28;20218;-64
2022/01/15 04:19:44;;;;;;;22.70;17.13;;;;;;;;;;2048840;29;20254;-60
2022/01/15 04:20:44;;;;;;;23.30;16.60;;;;;;;;;;2049105;28;20576;-64
2022/01/15 04:21:44;;;;;;;22.90;16.83;;;;;;;;;;2048822;28;20186;-56
2022/01/15 04:22:45;;;;;;;23.87;16.03;;;;;;;;;;2049227;28;20198;-55
2022/01/15 04:23:45;;;;;;;22.10;16.53;;;;;;;;;;2048915;28;20186;-64
2022/01/15 04:24:46;;;;;;;21.80;16.50;;;;;;;;;;2048758;29;20238;-63
2022/01/15 04:25:46;;;;;;;21.60;15.57;;;;;;;;;;2048525;28;20246;-63
2022/01/15 04:26:47;;;;;;;23.87;16.43;;;;;;;;;;2049087;29;20170;-64
2022/01/15 04:27:47;;;;;;;20.50;17.13;;;;;;;;;;2049037;29;20234;-64
2022/01/15 04:28:47;;;;;;;22.23;16.57;;;;;;;;;;2049326;28;20173;-63
2022/01/15 04:29:51;;;;;;;22.73;16.73;;;;;;;;;;2048581;28;20191;-64
2022/01/15 04:30:52;;;;;;;23.33;16.50;;;;;;;;;;2049012;29;20214;-63
2022/01/15 04:31:52;;;;;;;23.70;16.77;;;;;;;;;;2048469;28;20217;-64
2022/01/15 04:32:52;;;;;;;21.70;17.07;;;;;;;;;;2049228;29;20585;-63
2022/01/15 04:33:52;;;;;;;22.87;17.07;;;;;;;;;;2049083;29;20226;-64
2022/01/15 04:34:53;;;;;;;23.30;16.43;;;;;;;;;;2048413;28;20199;-63
2022/01/15 04:35:53;;;;;;;22.80;16.83;;;;;;;;;;2048967;29;20210;-64
2022/01/15 04:36:57;;;;;;;21.43;16.67;;;;;;;;;;2049066;28;20195;-64
2022/01/15 04:38:05;;;;;;;21.93;16.40;;;;;;;;;;2048201;29;20659;-65
2022/01/15 04:39:05;;;;;;;20.93;16.17;;;;;;;;;;2048042;29;20234;-65
2022/01/15 04:40:07;;;;;;;22.73;16.57;;;;;;;;;;2048390;29;20592;-65
2022/01/15 04:41:08;;;;;;;21.30;16.87;;;;;;;;;;2048885;28;20237;-65
2022/01/15 04:42:09;;;;;;;22.23;17.17;;;;;;;;;;2048594;28;20203;-65
2022/01/15 04:43:09;;;;;;;23.10;16.77;;;;;;;;;;2049036;28;20634;-63
2022/01/15 04:44:09;;;;;;;23.90;16.83;;;;;;;;;;2049095;29;20179;-64
2022/01/15 04:45:10;;;;;;;23.90;17.60;;;;;;;;;;2048528;29;20620;-63
2022/01/15 04:46:10;;;;;;;23.57;16.67;;;;;;;;;;2056150;28;20198;-64
2022/01/15 04:47:10;;;;;;;25.60;17.37;;;;;;;;;;2056182;28;20205;-63
2022/01/15 04:48:10;;;;;;;25.30;17.87;;;;;;;;;;2049431;28;20182;-64
2022/01/15 04:49:11;;;;;;;24.47;17.80;;;;;;;;;;2048424;28;20671;-62
2022/01/15 04:50:13;;;;;;;27.43;17.93;;;;;;;;;;2047966;29;20675;-57
2022/01/15 04:51:13;;;;;;;24.27;17.47;;;;;;;;;;2048454;29;20253;-63
2022/01/15 04:52:14;;;;;;;23.27;16.97;;;;;;;;;;2048950;28;20622;-62
2022/01/15 04:53:14;;;;;;;23.37;16.63;;;;;;;;;;2049352;29;20667;-61
2022/01/15 04:54:14;;;;;;;22.13;16.30;;;;;;;;;;2056326;28;20174;-63
2022/01/15 04:55:14;;;;;;;23.70;18.13;;;;;;;;;;2055393;28;20556;-63
2022/01/15 04:56:15;;;;;;;21.40;17.07;;;;;;;;;;2048402;28;20207;-63
2022/01/15 04:57:15;;;;;;;25.50;17.90;;;;;;;;;;2048481;29;20182;-61
2022/01/15 04:58:15;;;;;;;23.20;17.07;;;;;;;;;;2049066;29;20310;-62
2022/01/15 04:59:15;;;;;;;22.90;17.43;;;;;;;;;;2049320;28;20179;-62
2022/01/15 05:00:16;;;;;;;26.10;17.63;;;;;;;;;;2048303;29;20183;-63
2022/01/15 05:01:16;;;;;;;22.17;16.60;;;;;;;;;;2048536;28;20729;-62
2022/01/15 05:02:17;;;;;;;24.30;17.50;;;;;;;;;;2048230;28;20266;-62
2022/01/15 05:03:17;;;;;;;23.37;16.83;;;;;;;;;;2048694;28;20694;-65
2022/01/15 05:04:18;;;;;;;21.60;15.83;;;;;;;;;;2049045;29;20183;-65
2022/01/15 05:05:18;;;;;;;24.00;17.00;;;;;;;;;;2048278;28;20914;-63
2022/01/15 05:06:18;;;;;;;23.20;16.90;;;;;;;;;;2048831;29;20341;-63
2022/01/15 05:07:20;;;;;;;21.07;15.70;;;;;;;;;;2048345;28;20612;-61
2022/01/15 05:08:20;;;;;;;23.13;16.67;;;;;;;;;;2055777;28;20623;-64
2022/01/15 05:09:20;;;;;;;22.87;16.50;;;;;;;;;;2046967;28;20210;-63
2022/01/15 05:10:24;;;;;;;20.37;15.50;;;;;;;;;;2047407;29;20178;-61
2022/01/15 05:11:31;;;;;;;23.10;16.87;;;;;;;;;;2049176;28;20187;-61
2022/01/15 05:12:40;;;;;;;21.03;15.50;;;;;;;;;;2048210;29;20209;-64
2022/01/15 05:13:40;;;;;;;19.53;15.37;;;;;;;;;;2041262;29;20218;-62
2022/01/15 05:14:40;;;;;;;21.90;15.87;;;;;;;;;;2048212;28;20175;-62
2022/01/15 05:15:43;;;;;;;23.00;16.60;;;;;;;;;;2048074;29;20191;-64
2022/01/15 05:16:43;;;;;;;24.07;17.50;;;;;;;;;;2048662;28;20179;-63
2022/01/15 05:17:44;;;;;;;26.60;17.73;;;;;;;;;;2048509;28;20183;-60
2022/01/15 05:18:45;;;;;;;25.90;17.80;;;;;;;;;;2046666;28;20600;-64
2022/01/15 05:19:45;;;;;;;24.23;17.70;;;;;;;;;;2055534;28;20190;-63
2022/01/15 05:20:46;;;;;;;25.57;17.67;;;;;;;;;;2055787;28;20170;-65
2022/01/15 05:21:46;;;;;;;22.53;16.43;;;;;;;;;;2048222;28;20297;-60
2022/01/15 05:22:47;;;;;;;23.47;17.13;;;;;;;;;;2048537;29;20183;-64
2022/01/15 05:23:47;;;;;;;24.63;17.60;;;;;;;;;;2048311;28;20187;-65
2022/01/15 05:24:48;;;;;;;23.30;16.33;;;;;;;;;;2048663;28;20183;-65
2022/01/15 05:25:48;;;;;;;21.77;16.17;;;;;;;;;;2047292;28;20183;-60
2022/01/15 05:26:48;;;;;;;21.50;16.03;;;;;;;;;;2048070;29;20183;-63
2022/01/15 05:27:51;;;;;;;23.27;16.20;;;;;;;;;;2048498;29;20167;-61
2022/01/15 05:28:51;;;;;;;21.77;17.00;;;;;;;;;;2048610;28;20203;-64
2022/01/15 05:29:51;;;;;;;23.37;16.63;;;;;;;;;;2048238;28;20456;-64
2022/01/15 05:30:52;;;;;;;23.57;16.70;;;;;;;;;;2048454;28;20202;-65
2022/01/15 05:31:52;;;;;;;21.27;15.87;;;;;;;;;;2046631;28;20694;-64
2022/01/15 05:32:52;;;;;;;22.77;17.00;;;;;;;;;;2047421;29;20186;-64
2022/01/15 05:33:53;;;;;;;19.87;16.47;;;;;;;;;;2048550;29;20214;-63
2022/01/15 05:34:53;;;;;;;21.80;16.57;;;;;;;;;;2048454;28;20187;-64
2022/01/15 05:35:53;;;;;;;21.00;16.03;;;;;;;;;;2048576;29;20609;-64
2022/01/15 05:36:54;;;;;;;20.83;16.37;;;;;;;;;;2047666;28;20183;-64
2022/01/15 05:37:54;;;;;;;22.13;16.10;;;;;;;;;;2048983;29;20233;-65
2022/01/15 05:38:54;;;;;;;21.87;16.27;;;;;;;;;;2048683;29;20183;-59
2022/01/15 05:39:55;;;;;;;22.97;16.87;;;;;;;;;;2048269;29;20171;-64
2022/01/15 05:40:55;;;;;;;23.60;17.17;;;;;;;;;;2047985;29;20233;-64
2022/01/15 05:41:56;;;;;;;21.50;16.33;;;;;;;;;;2048051;28;20293;-64
2022/01/15 05:42:56;;;;;;;25.10;16.50;;;;;;;;;;2048179;29;20193;-63
2022/01/15 05:44:01;;;;;;;22.63;16.40;;;;;;;;;;2048222;29;20234;-64
2022/01/15 05:45:01;;;;;;;22.67;17.70;;;;;;;;;;2048411;28;20206;-64
2022/01/15 05:46:01;;;;;;;23.37;16.97;;;;;;;;;;2047973;28;20215;-65
2022/01/15 05:47:02;;;;;;;23.37;16.47;;;;;;;;;;2047633;29;20729;-56
2022/01/15 05:48:02;;;;;;;21.63;16.43;;;;;;;;;;2047995;29;20262;-66
2022/01/15 05:49:03;;;;;;;22.73;17.93;;;;;;;;;;2048205;29;20274;-64
2022/01/15 05:50:04;;;;;;;26.33;17.97;;;;;;;;;;2048291;29;20183;-64
2022/01/15 05:51:04;;;;;;;23.00;17.67;;;;;;;;;;2048951;29;20206;-66
2022/01/15 05:52:05;;;;;;;24.73;17.87;;;;;;;;;;2049037;28;20801;-63
2022/01/15 05:53:05;;;;;;;24.23;17.93;;;;;;;;;;2048458;29;20262;-63
2022/01/15 05:54:10;;;;;;;25.20;17.07;;;;;;;;;;2048357;29;20646;-64
2022/01/15 05:55:10;;;;;;;25.90;17.20;;;;;;;;;;2048023;29;20171;-64
2022/01/15 05:56:10;;;;;;;23.63;17.07;;;;;;;;;;2048479;29;20718;-63
2022/01/15 05:57:10;;;;;;;25.60;18.20;;;;;;;;;;2047786;29;20198;-65
2022/01/15 05:58:11;;;;;;;28.23;19.40;;;;;;;;;;2048242;29;20257;-65
2022/01/15 05:59:11;;;;;;;23.15;18.05;;;;;;;;;;2048562;29;20175;-65
2022/01/15 06:00:11;;;;;;;27.60;19.17;;;;;;;;;;2047970;29;20666;-64
2022/01/15 06:01:14;;;;;;;25.47;18.33;;;;;;;;;;2049026;28;20181;-64
2022/01/15 06:02:14;;;;;;;24.33;18.33;;;;;;;;;;2048834;28;20591;-63
2022/01/15 06:03:15;;;;;;;26.70;19.03;;;;;;;;;;2055898;28;20180;-64
2022/01/15 06:04:15;;;;;;;27.30;18.83;;;;;;;;;;2055651;28;20655;-66
2022/01/15 06:05:15;;;;;;;22.88;17.48;;;;;;;;;;2047764;28;20197;-64
2022/01/15 06:06:16;;;;;;;23.90;17.97;;;;;;;;;;2048710;29;20218;-63
2022/01/15 06:07:16;;;;;;;26.00;18.37;;;;;;;;;;2048862;29;20222;-63
2022/01/15 06:08:16;;;;;;;23.90;18.07;;;;;;;;;;2048516;28;20269;-63
2022/01/15 06:09:17;;;;;;;25.80;17.93;;;;;;;;;;2047638;28;20230;-64
2022/01/15 06:10:17;;;;;;;26.60;18.73;;;;;;;;;;2048756;29;20206;-63
2022/01/15 06:11:18;;;;;;;24.77;18.80;;;;;;;;;;2048854;29;20546;-64
2022/01/15 06:12:19;;;;;;;25.10;18.53;;;;;;;;;;2055478;28;20926;-57
2022/01/15 06:13:19;;;;;;;27.10;18.60;;;;;;;;;;2056075;28;20194;-63
2022/01/15 06:14:20;;;;;;;25.07;17.50;;;;;;;;;;2047940;29;20225;-63
2022/01/15 06:15:20;;;;;;;24.63;17.63;;;;;;;;;;2048179;29;20186;-64
2022/01/15 06:16:20;;;;;;;24.87;17.13;;;;;;;;;;2047937;28;20182;-64